Time,TemperatureF,DewpointF,PressureIn,WindDirection,WindDirectionDegrees,WindSpeedMPH,WindSpeedGustMPH,Humidity,HourlyPrecipIn,Conditions,Clouds,dailyrainin,SolarRadiationWatts/m^2,SoftwareType,DateUTC
2013-05-18 00:03:00,71.0,65.0,-100.00,South,189,0.0,2.0,82,0.00,,,0.00,0.000000,,2013-05-18 04:03:00,
2013-05-18 00:11:00,69.0,66.0,-100.00,NNE,22,0.0,2.0,91,0.00,,,0.00,0.000000,,2013-05-18 04:11:00,
2013-05-18 00:33:00,69.0,66.0,-100.00,NNE,22,0.0,2.0,91,0.00,,,0.00,0.000000,,2013-05-18 04:33:00,
2013-05-18 00:43:00,69.0,66.0,-100.00,NNE,22,0.0,2.0,91,0.00,,,0.00,0.000000,,2013-05-18 04:43:00,
2013-05-18 00:53:00,69.0,66.0,-100.00,NNE,22,0.0,2.0,91,0.00,,,0.00,0.000000,,2013-05-18 04:53:00,
2013-05-18 01:02:00,69.0,66.0,-100.00,NNE,22,0.0,2.0,91,0.00,,,0.00,0.000000,,2013-05-18 05:02:00,
2013-05-18 01:11:00,68.0,66.0,-100.00,ESE,115,0.0,2.0,94,0.00,,,0.00,0.000000,,2013-05-18 05:11:00,
2013-05-18 01:32:00,68.0,66.0,-100.00,ESE,115,0.0,2.0,94,0.00,,,0.00,0.000000,,2013-05-18 05:32:00,
2013-05-18 01:42:00,68.0,66.0,-100.00,ESE,115,0.0,2.0,94,0.00,,,0.00,0.000000,,2013-05-18 05:42:00,
2013-05-18 01:52:00,68.0,66.0,-100.00,ESE,115,0.0,2.0,94,0.00,,,0.00,0.000000,,2013-05-18 05:52:00,
2013-05-18 02:02:00,68.0,66.0,-100.00,ESE,115,0.0,2.0,94,0.00,,,0.00,0.000000,,2013-05-18 06:02:00,
2013-05-18 02:11:00,66.0,64.0,-100.00,East,92,0.0,2.0,94,0.00,,,0.00,0.000000,,2013-05-18 06:11:00,
2013-05-18 02:42:00,66.0,64.0,-100.00,East,92,0.0,2.0,94,0.00,,,0.00,0.000000,,2013-05-18 06:42:00,
2013-05-18 02:52:00,66.0,64.0,-100.00,East,92,0.0,2.0,94,0.00,,,0.00,0.000000,,2013-05-18 06:52:00,
2013-05-18 03:01:00,66.0,64.0,-100.00,East,92,0.0,2.0,94,0.00,,,0.00,0.000000,,2013-05-18 07:01:00,
2013-05-18 03:11:00,64.0,63.0,-100.00,East,100,0.0,0.0,95,0.00,,,0.00,0.000000,,2013-05-18 07:11:00,
2013-05-18 03:32:00,64.0,63.0,-100.00,East,100,0.0,0.0,95,0.00,,,0.00,0.000000,,2013-05-18 07:32:00,
2013-05-18 03:43:00,64.0,63.0,-100.00,East,100,0.0,0.0,95,0.00,,,0.00,0.000000,,2013-05-18 07:43:00,
2013-05-18 03:53:00,64.0,63.0,-100.00,East,100,0.0,0.0,95,0.00,,,0.00,0.000000,,2013-05-18 07:53:00,
2013-05-18 04:02:00,64.0,63.0,-100.00,East,100,0.0,0.0,95,0.00,,,0.00,0.000000,,2013-05-18 08:02:00,
2013-05-18 04:11:00,63.0,62.0,-100.00,West,270,0.0,0.0,95,0.00,,,0.00,0.000000,,2013-05-18 08:11:00,
2013-05-18 04:42:00,63.0,62.0,-100.00,West,270,0.0,0.0,95,0.00,,,0.00,0.000000,,2013-05-18 08:42:00,
2013-05-18 04:52:00,63.0,62.0,-100.00,West,270,0.0,0.0,95,0.00,,,0.00,0.000000,,2013-05-18 08:52:00,
2013-05-18 05:02:00,63.0,62.0,-100.00,West,270,0.0,0.0,95,0.00,,,0.00,0.000000,,2013-05-18 09:02:00,
2013-05-18 05:11:00,62.0,61.0,-100.00,WNW,299,0.0,0.0,95,0.00,,,0.00,0.000000,,2013-05-18 09:11:00,
2013-05-18 05:43:00,62.0,61.0,-100.00,WNW,299,0.0,0.0,95,0.00,,,0.00,0.000000,,2013-05-18 09:43:00,
2013-05-18 05:53:00,62.0,61.0,-100.00,WNW,299,0.0,0.0,95,0.00,,,0.00,0.000000,,2013-05-18 09:53:00,
2013-05-18 06:03:00,62.0,61.0,-100.00,WNW,299,0.0,0.0,95,0.00,,,0.00,0.000000,,2013-05-18 10:03:00,
2013-05-18 06:11:00,61.0,60.0,-100.00,NNE,32,0.0,0.0,96,0.00,,,0.00,0.000000,,2013-05-18 10:11:00,
2013-05-18 06:33:00,61.0,60.0,-100.00,NNE,32,0.0,0.0,96,0.00,,,0.00,0.000000,,2013-05-18 10:33:00,
2013-05-18 06:42:00,61.0,60.0,-100.00,NNE,32,0.0,0.0,96,0.00,,,0.00,0.000000,,2013-05-18 10:42:00,
2013-05-18 06:53:00,61.0,60.0,-100.00,NNE,32,0.0,0.0,96,0.00,,,0.00,0.000000,,2013-05-18 10:53:00,
2013-05-18 07:03:00,61.0,60.0,-100.00,NNE,32,0.0,0.0,96,0.00,,,0.00,0.000000,,2013-05-18 11:03:00,
2013-05-18 07:11:00,61.0,60.0,-100.00,SSW,200,0.0,0.0,96,0.00,,,0.00,7.000000,,2013-05-18 11:11:00,
2013-05-18 07:33:00,61.0,60.0,-100.00,SSW,200,0.0,0.0,96,0.00,,,0.00,7.000000,,2013-05-18 11:33:00,
2013-05-18 07:42:00,61.0,60.0,-100.00,SSW,200,0.0,0.0,96,0.00,,,0.00,7.000000,,2013-05-18 11:42:00,
2013-05-18 07:52:00,61.0,60.0,-100.00,SSW,200,0.0,0.0,96,0.00,,,0.00,7.000000,,2013-05-18 11:52:00,
2013-05-18 08:02:00,61.0,60.0,-100.00,SSW,200,0.0,0.0,96,0.00,,,0.00,7.000000,,2013-05-18 12:02:00,
2013-05-18 08:11:00,68.0,67.0,-100.00,NE,34,0.0,2.0,96,0.00,,,0.00,94.000000,,2013-05-18 12:11:00,
2013-05-18 08:42:00,68.0,67.0,-100.00,NE,34,0.0,2.0,96,0.00,,,0.00,94.000000,,2013-05-18 12:42:00,
2013-05-18 08:52:00,68.0,67.0,-100.00,NE,34,0.0,2.0,96,0.00,,,0.00,94.000000,,2013-05-18 12:52:00,
2013-05-18 09:01:00,68.0,67.0,-100.00,NE,34,0.0,2.0,96,0.00,,,0.00,94.000000,,2013-05-18 13:01:00,
2013-05-18 09:11:00,79.0,72.0,-100.00,East,80,2.0,4.0,78,0.00,,,0.00,101.000000,,2013-05-18 13:11:00,
2013-05-18 09:33:00,79.0,72.0,-100.00,East,80,2.0,4.0,78,0.00,,,0.00,101.000000,,2013-05-18 13:33:00,
2013-05-18 09:43:00,79.0,72.0,-100.00,East,80,2.0,4.0,78,0.00,,,0.00,101.000000,,2013-05-18 13:43:00,
2013-05-18 09:53:00,79.0,72.0,-100.00,East,80,2.0,4.0,78,0.00,,,0.00,101.000000,,2013-05-18 13:53:00,
2013-05-18 10:04:00,79.0,72.0,-100.00,East,80,2.0,4.0,78,0.00,,,0.00,101.000000,,2013-05-18 14:04:00,
2013-05-18 10:11:00,85.0,70.0,-100.00,South,188,3.0,6.0,62,0.00,,,0.00,444.000000,,2013-05-18 14:11:00,
2013-05-18 10:33:00,85.0,70.0,-100.00,South,188,3.0,6.0,62,0.00,,,0.00,444.000000,,2013-05-18 14:33:00,
2013-05-18 10:42:00,85.0,70.0,-100.00,South,188,3.0,6.0,62,0.00,,,0.00,444.000000,,2013-05-18 14:42:00,
2013-05-18 10:54:00,85.0,70.0,-100.00,South,188,3.0,6.0,62,0.00,,,0.00,444.000000,,2013-05-18 14:54:00,
2013-05-18 11:03:00,85.0,70.0,-100.00,South,188,3.0,6.0,62,0.00,,,0.00,444.000000,,2013-05-18 15:03:00,
2013-05-18 11:11:00,84.0,71.0,-100.00,SW,217,1.0,5.0,65,0.00,,,0.00,220.000000,,2013-05-18 15:11:00,
2013-05-18 11:43:00,84.0,71.0,-100.00,SW,217,1.0,5.0,65,0.00,,,0.00,220.000000,,2013-05-18 15:43:00,
2013-05-18 11:54:00,84.0,71.0,-100.00,SW,217,1.0,5.0,65,0.00,,,0.00,220.000000,,2013-05-18 15:54:00,
2013-05-18 12:03:00,84.0,71.0,-100.00,SW,217,1.0,5.0,65,0.00,,,0.00,220.000000,,2013-05-18 16:03:00,
2013-05-18 12:11:00,90.0,67.0,-100.00,NNE,32,3.0,6.0,47,0.00,,,0.00,752.000000,,2013-05-18 16:11:00,
2013-05-18 12:33:00,90.0,67.0,-100.00,NNE,32,3.0,6.0,47,0.00,,,0.00,752.000000,,2013-05-18 16:33:00,
2013-05-18 12:42:00,90.0,67.0,-100.00,NNE,32,3.0,6.0,47,0.00,,,0.00,752.000000,,2013-05-18 16:42:00,
2013-05-18 12:52:00,90.0,67.0,-100.00,NNE,32,3.0,6.0,47,0.00,,,0.00,752.000000,,2013-05-18 16:52:00,
2013-05-18 13:03:00,90.0,67.0,-100.00,NNE,32,3.0,6.0,47,0.00,,,0.00,752.000000,,2013-05-18 17:03:00,
2013-05-18 13:11:00,88.0,66.0,-100.00,North,357,2.0,7.0,49,0.00,,,0.00,590.000000,,2013-05-18 17:11:00,
2013-05-18 13:33:00,88.0,66.0,-100.00,North,357,2.0,7.0,49,0.00,,,0.00,590.000000,,2013-05-18 17:33:00,
2013-05-18 13:42:00,88.0,66.0,-100.00,North,357,2.0,7.0,49,0.00,,,0.00,590.000000,,2013-05-18 17:42:00,
2013-05-18 13:52:00,88.0,66.0,-100.00,North,357,2.0,7.0,49,0.00,,,0.00,590.000000,,2013-05-18 17:52:00,
2013-05-18 14:01:00,88.0,66.0,-100.00,North,357,2.0,7.0,49,0.00,,,0.00,590.000000,,2013-05-18 18:01:00,
2013-05-18 14:11:00,92.0,63.0,-100.00,NNW,341,3.0,7.0,39,0.00,,,0.00,666.000000,,2013-05-18 18:11:00,
2013-05-18 14:42:00,92.0,63.0,-100.00,NNW,341,3.0,7.0,39,0.00,,,0.00,666.000000,,2013-05-18 18:42:00,
2013-05-18 14:52:00,92.0,63.0,-100.00,NNW,341,3.0,7.0,39,0.00,,,0.00,666.000000,,2013-05-18 18:52:00,
2013-05-18 15:02:00,92.0,63.0,-100.00,NNW,341,3.0,7.0,39,0.00,,,0.00,666.000000,,2013-05-18 19:02:00,
2013-05-18 15:32:00,76.0,70.0,-100.00,SSW,212,3.0,14.0,83,0.00,,,0.00,126.000000,,2013-05-18 19:32:00,
2013-05-18 16:11:00,77.0,69.0,-100.00,WSW,252,3.0,10.0,77,-99.99,,,0.01,144.000000,,2013-05-18 20:11:00,
2013-05-18 16:42:00,77.0,69.0,-100.00,WSW,252,3.0,10.0,77,-99.99,,,0.01,144.000000,,2013-05-18 20:42:00,
2013-05-18 16:52:00,77.0,69.0,-100.00,WSW,252,3.0,10.0,77,-99.99,,,0.01,144.000000,,2013-05-18 20:52:00,
2013-05-18 17:01:00,77.0,69.0,-100.00,WSW,252,3.0,10.0,77,-99.99,,,0.01,144.000000,,2013-05-18 21:01:00,
2013-05-18 17:11:00,87.0,68.0,-100.00,West,259,4.0,9.0,53,0.00,,,0.01,405.000000,,2013-05-18 21:11:00,
2013-05-18 17:33:00,87.0,68.0,-100.00,West,259,4.0,9.0,53,0.00,,,0.01,405.000000,,2013-05-18 21:33:00,
2013-05-18 17:44:00,87.0,68.0,-100.00,West,259,4.0,9.0,53,0.00,,,0.01,405.000000,,2013-05-18 21:44:00,
2013-05-18 17:53:00,87.0,68.0,-100.00,West,259,4.0,9.0,53,0.00,,,0.01,405.000000,,2013-05-18 21:53:00,
2013-05-18 18:03:00,87.0,68.0,-100.00,West,259,4.0,9.0,53,0.00,,,0.01,405.000000,,2013-05-18 22:03:00,
2013-05-18 18:11:00,87.0,70.0,-100.00,SW,236,3.0,9.0,58,0.00,,,0.01,336.000000,,2013-05-18 22:11:00,
2013-05-18 18:33:00,87.0,70.0,-100.00,SW,236,3.0,9.0,58,0.00,,,0.01,336.000000,,2013-05-18 22:33:00,
2013-05-18 18:42:00,87.0,70.0,-100.00,SW,236,3.0,9.0,58,0.00,,,0.01,336.000000,,2013-05-18 22:42:00,
2013-05-18 18:53:00,87.0,70.0,-100.00,SW,236,3.0,9.0,58,0.00,,,0.01,336.000000,,2013-05-18 22:53:00,
2013-05-18 19:02:00,87.0,70.0,-100.00,SW,236,3.0,9.0,58,0.00,,,0.01,336.000000,,2013-05-18 23:02:00,
2013-05-18 19:11:00,84.0,70.0,-100.00,SW,236,3.0,8.0,63,0.00,,,0.01,187.000000,,2013-05-18 23:11:00,
2013-05-18 19:32:00,84.0,70.0,-100.00,SW,236,3.0,8.0,63,0.00,,,0.01,187.000000,,2013-05-18 23:32:00,
2013-05-18 19:42:00,84.0,70.0,-100.00,SW,236,3.0,8.0,63,0.00,,,0.01,187.000000,,2013-05-18 23:42:00,
2013-05-18 19:53:00,84.0,70.0,-100.00,SW,236,3.0,8.0,63,0.00,,,0.01,187.000000,,2013-05-18 23:53:00,
2013-05-18 20:02:00,84.0,70.0,-100.00,SW,236,3.0,8.0,63,0.00,,,0.01,187.000000,,2013-05-19 00:02:00,
2013-05-18 21:11:00,70.0,68.0,-100.00,NE,56,1.0,3.0,95,-99.99,,,0.30,0.000000,,2013-05-19 01:11:00,
2013-05-18 21:42:00,70.0,68.0,-100.00,NE,56,1.0,3.0,95,-99.99,,,0.30,0.000000,,2013-05-19 01:42:00,
2013-05-18 21:52:00,70.0,68.0,-100.00,NE,56,1.0,3.0,95,-99.99,,,0.30,0.000000,,2013-05-19 01:52:00,
2013-05-18 22:02:00,70.0,68.0,-100.00,NE,56,1.0,3.0,95,-99.99,,,0.30,0.000000,,2013-05-19 02:02:00,
2013-05-18 22:11:00,70.0,68.0,-100.00,SE,133,0.0,2.0,95,0.00,,,0.30,0.000000,,2013-05-19 02:11:00,
2013-05-18 22:32:00,70.0,68.0,-100.00,SE,133,0.0,2.0,95,0.00,,,0.30,0.000000,,2013-05-19 02:32:00,
2013-05-18 22:42:00,70.0,68.0,-100.00,SE,133,0.0,2.0,95,0.00,,,0.30,0.000000,,2013-05-19 02:42:00,
2013-05-18 22:52:00,70.0,68.0,-100.00,SE,133,0.0,2.0,95,0.00,,,0.30,0.000000,,2013-05-19 02:52:00,
2013-05-18 23:01:00,70.0,68.0,-100.00,SE,133,0.0,2.0,95,0.00,,,0.30,0.000000,,2013-05-19 03:01:00,
2013-05-18 23:11:00,70.0,69.0,-100.00,SSE,167,0.0,2.0,96,0.00,,,0.30,0.000000,,2013-05-19 03:11:00,
2013-05-18 23:43:00,70.0,69.0,-100.00,SSE,167,0.0,2.0,96,0.00,,,0.30,0.000000,,2013-05-19 03:43:00,
2013-05-18 23:53:00,70.0,69.0,-100.00,SSE,167,0.0,2.0,96,0.00,,,0.30,0.000000,,2013-05-19 03:53:00,